Time;durP1;ratioP1;P1;durP2;ratioP2;P2;SDS_P1;SDS_P2;PMS_P1;PMS_P2;Temp;Humidity;BMP_temperature;BMP_pressure;BME280_temperature;BME280_humidity;BME280_pressure;Samples;Min_cycle;Max_cycle;Signal;HPM_P1;HPM_P2
2022/06/06 00:01:59;;;;;;;0.10;0.10;;;15.80;99.90;;;;;;5068077;28;20440;-86
2022/06/06 00:04:27;;;;;;;0.10;0.10;;;15.80;99.90;;;;;;5060293;28;20449;-89
2022/06/06 00:06:58;;;;;;;0.10;0.10;;;15.70;99.90;;;;;;5065186;28;20182;-89
2022/06/06 00:09:24;;;;;;;0.10;0.10;;;15.70;99.90;;;;;;5069200;28;20839;-92
2022/06/06 00:11:50;;;;;;;0.10;0.10;;;15.70;99.90;;;;;;5064939;28;20582;-85
2022/06/06 00:14:17;;;;;;;0.10;0.10;;;15.70;99.90;;;;;;5071426;28;21052;-86
2022/06/06 00:16:43;;;;;;;0.10;0.10;;;15.60;99.90;;;;;;5064135;28;20178;-84
2022/06/06 00:19:11;;;;;;;0.10;0.10;;;15.60;99.90;;;;;;5068937;28;20788;-87
2022/06/06 00:21:37;;;;;;;0.10;0.10;;;15.50;99.90;;;;;;5068081;28;20190;-88
2022/06/06 00:24:03;;;;;;;0.10;0.10;;;15.60;99.90;;;;;;5067708;28;20926;-88
2022/06/06 00:26:31;;;;;;;0.10;0.10;;;15.60;99.90;;;;;;5061701;28;20883;-90
2022/06/06 00:28:57;;;;;;;0.10;0.10;;;15.60;99.90;;;;;;5070958;28;20468;-90
2022/06/06 00:36:55;;;;;;;0.10;0.10;;;15.60;99.90;;;;;;5064354;28;20493;-89
2022/06/06 00:39:21;;;;;;;0.10;0.10;;;15.50;99.90;;;;;;5066425;28;20428;-91
2022/06/06 00:41:50;;;;;;;0.10;0.10;;;15.50;99.90;;;;;;5059397;28;20710;-90
2022/06/06 00:44:28;;;;;;;0.10;0.10;;;15.50;99.90;;;;;;5055156;28;20195;-89
2022/06/06 00:47:00;;;;;;;0.10;0.10;;;15.50;99.90;;;;;;5061581;28;20447;-90
2022/06/06 00:49:40;;;;;;;0.10;0.10;;;15.50;99.90;;;;;;5068891;28;20440;-88
2022/06/06 00:52:11;;;;;;;0.10;0.10;;;15.50;99.90;;;;;;5064388;28;20517;-87
2022/06/06 00:54:37;;;;;;;0.10;0.10;;;15.60;99.90;;;;;;5066200;28;20886;-88
2022/06/06 00:57:09;;;;;;;0.10;0.10;;;15.60;99.90;;;;;;5051931;28;20448;-90
2022/06/06 00:59:37;;;;;;;0.10;0.10;;;15.60;99.90;;;;;;5070416;28;20516;-89
2022/06/06 01:02:06;;;;;;;0.10;0.10;;;15.60;99.90;;;;;;5061032;28;20437;-90
2022/06/06 01:04:33;;;;;;;0.10;0.10;;;15.60;99.90;;;;;;5048045;28;20517;-88
2022/06/06 01:06:59;;;;;;;0.10;0.10;;;15.60;99.90;;;;;;5048377;28;20443;-89
2022/06/06 01:09:26;;;;;;;0.10;0.10;;;15.70;99.90;;;;;;5067611;28;20440;-89
2022/06/06 01:11:59;;;;;;;0.10;0.10;;;15.70;99.90;;;;;;5048747;28;20479;-89
2022/06/06 01:14:28;;;;;;;0.10;0.10;;;15.60;99.90;;;;;;5049470;28;20979;-89
2022/06/06 01:17:03;;;;;;;0.10;0.10;;;15.60;99.90;;;;;;5054875;28;20448;-90
2022/06/06 01:19:57;;;;;;;0.10;0.10;;;15.60;99.90;;;;;;5067986;28;20436;-91
2022/06/06 01:22:47;;;;;;;0.10;0.10;;;15.60;99.90;;;;;;5067843;28;20527;-91
2022/06/06 01:25:31;;;;;;;0.10;0.10;;;15.60;99.90;;;;;;5062912;28;20452;-90
2022/06/06 01:28:34;;;;;;;0.10;0.10;;;15.50;99.90;;;;;;5063118;28;20437;-89
2022/06/06 01:31:05;;;;;;;0.10;0.10;;;15.50;99.90;;;;;;5067365;28;20476;-88
2022/06/06 01:33:51;;;;;;;0.10;0.10;;;15.60;99.90;;;;;;5058372;28;20493;-90
2022/06/06 01:36:16;;;;;;;0.10;0.10;;;15.60;99.90;;;;;;5062479;28;20441;-91
2022/06/06 01:38:42;;;;;;;0.10;0.10;;;15.50;99.90;;;;;;5068763;28;20443;-91
2022/06/06 01:41:10;;;;;;;0.10;0.10;;;15.60;99.90;;;;;;5061676;28;20190;-91
2022/06/06 01:43:44;;;;;;;0.10;0.10;;;15.70;99.90;;;;;;5064007;28;20186;-93
2022/06/06 01:46:14;;;;;;;0.10;0.10;;;15.80;99.90;;;;;;5066739;28;20449;-95
2022/06/06 01:48:42;;;;;;;0.10;0.10;;;15.70;99.90;;;;;;5071146;28;20474;-92
2022/06/06 01:51:10;;;;;;;0.10;0.10;;;15.60;99.90;;;;;;5046148;28;20484;-89
2022/06/06 01:53:38;;;;;;;0.10;0.10;;;15.60;99.90;;;;;;5058687;28;20436;-90
2022/06/06 01:56:06;;;;;;;0.10;0.10;;;15.40;99.90;;;;;;5054286;28;20456;-88
2022/06/06 01:58:33;;;;;;;0.10;0.10;;;15.40;99.90;;;;;;5068523;28;20955;-89
2022/06/06 02:01:01;;;;;;;0.10;0.10;;;15.40;99.90;;;;;;5051890;28;20448;-91
2022/06/06 02:03:27;;;;;;;0.10;0.10;;;15.40;99.90;;;;;;5066727;28;20463;-92
2022/06/06 02:05:52;;;;;;;0.10;0.10;;;15.40;99.90;;;;;;5058420;28;20927;-92
2022/06/06 02:08:19;;;;;;;0.10;0.10;;;15.50;99.90;;;;;;5061248;28;20238;-93
2022/06/06 02:10:45;;;;;;;0.10;0.10;;;15.40;99.90;;;;;;5063322;28;20212;-93
2022/06/06 02:13:11;;;;;;;0.10;0.10;;;15.40;99.90;;;;;;5061579;28;20441;-91
2022/06/06 02:15:37;;;;;;;0.10;0.10;;;15.40;99.90;;;;;;5059351;28;20449;-92
2022/06/06 02:18:03;;;;;;;0.10;0.10;;;15.30;99.90;;;;;;5046495;28;20325;-90
2022/06/06 02:20:31;;;;;;;0.10;0.10;;;15.30;99.90;;;;;;5056363;28;21029;-91
2022/06/06 02:22:57;;;;;;;0.10;0.10;;;15.40;99.90;;;;;;5036154;28;21285;-92
2022/06/06 02:25:23;;;;;;;0.10;0.10;;;15.40;99.90;;;;;;5056399;28;20523;-89
2022/06/06 02:27:50;;;;;;;0.10;0.10;;;15.40;99.90;;;;;;5063980;28;21163;-88
2022/06/06 02:30:18;;;;;;;0.10;0.10;;;15.40;99.90;;;;;;5046589;28;20472;-93
2022/06/06 02:32:44;;;;;;;0.10;0.10;;;15.40;99.90;;;;;;5060434;28;20484;-93
2022/06/06 02:35:13;;;;;;;0.10;0.10;;;15.40;99.90;;;;;;5065315;28;20468;-93
2022/06/06 02:37:40;;;;;;;0.10;0.10;;;15.40;99.90;;;;;;5050374;28;20458;-93
2022/06/06 02:40:09;;;;;;;0.10;0.10;;;15.40;99.90;;;;;;5059178;28;20811;-94
2022/06/06 02:42:36;;;;;;;0.10;0.10;;;15.40;99.90;;;;;;5062537;28;20945;-92
2022/06/06 02:45:02;;;;;;;0.10;0.10;;;15.40;99.90;;;;;;5064371;28;20440;-92
2022/06/06 02:47:28;;;;;;;0.10;0.10;;;15.40;99.90;;;;;;5068156;28;20526;-94
2022/06/06 02:49:54;;;;;;;0.10;0.10;;;15.50;99.90;;;;;;5061446;28;20482;-88
2022/06/06 02:52:20;;;;;;;0.10;0.10;;;15.40;99.90;;;;;;5074399;28;20479;-94
2022/06/06 02:54:46;;;;;;;0.10;0.10;;;15.40;99.90;;;;;;5061048;28;20257;-90
2022/06/06 02:57:12;;;;;;;0.10;0.10;;;15.40;99.90;;;;;;5062184;28;20539;-88
2022/06/06 02:59:38;;;;;;;0.10;0.10;;;15.30;99.90;;;;;;5060355;28;20209;-90
2022/06/06 03:02:04;;;;;;;0.10;0.10;;;15.40;99.90;;;;;;5060977;28;20178;-91
2022/06/06 03:04:30;;;;;;;0.10;0.10;;;15.30;99.90;;;;;;5061770;28;22627;-91
2022/06/06 03:07:04;;;;;;;0.10;0.10;;;15.30;99.90;;;;;;5069473;28;20182;-91
2022/06/06 03:09:38;;;;;;;0.10;0.10;;;15.40;99.90;;;;;;5063716;28;21194;-91
2022/06/06 03:12:19;;;;;;;0.10;0.10;;;15.30;99.90;;;;;;5068898;28;20475;-92
2022/06/06 03:14:53;;;;;;;0.10;0.10;;;15.40;99.90;;;;;;5074511;28;20432;-92
2022/06/06 03:20:47;;;;;;;0.10;0.10;;;15.30;99.90;;;;;;5070410;28;20462;-90
2022/06/06 03:23:31;;;;;;;0.10;0.10;;;15.20;99.90;;;;;;5054747;28;20523;-92
2022/06/06 03:26:11;;;;;;;0.10;0.10;;;15.20;99.90;;;;;;5059408;28;20444;-91
2022/06/06 03:29:08;;;;;;;0.10;0.10;;;15.30;99.90;;;;;;5064306;28;20455;-93
2022/06/06 03:32:17;;;;;;;0.10;0.10;;;15.40;99.90;;;;;;5044444;28;20491;-91
2022/06/06 03:35:11;;;;;;;0.10;0.10;;;15.30;99.90;;;;;;5073414;28;20773;-91
2022/06/06 03:37:50;;;;;;;0.10;0.10;;;15.30;99.90;;;;;;5065793;28;20441;-91
2022/06/06 03:40:22;;;;;;;0.10;0.10;;;15.30;99.90;;;;;;5054792;28;20435;-93
2022/06/06 03:43:07;;;;;;;0.10;0.10;;;15.30;99.90;;;;;;5049401;28;20475;-91
2022/06/06 03:45:51;;;;;;;0.10;0.10;;;15.30;99.90;;;;;;5066155;28;20521;-89
2022/06/06 03:48:46;;;;;;;0.10;0.10;;;15.30;99.90;;;;;;5066757;28;20792;-89
2022/06/06 03:51:36;;;;;;;0.10;0.10;;;15.40;99.90;;;;;;5053775;28;20489;-85
2022/06/06 03:54:09;;;;;;;0.10;0.10;;;15.30;99.90;;;;;;5043975;28;20444;-91
2022/06/06 03:57:03;;;;;;;0.10;0.10;;;15.40;99.90;;;;;;5066453;28;20448;-89
2022/06/06 03:59:29;;;;;;;0.10;0.10;;;15.50;99.90;;;;;;5065240;28;20851;-88
2022/06/06 04:01:59;;;;;;;0.10;0.10;;;15.40;99.90;;;;;;5061042;28;20432;-88
2022/06/06 04:04:28;;;;;;;0.10;0.10;;;15.40;99.90;;;;;;5071135;28;20440;-89
2022/06/06 04:06:57;;;;;;;0.10;0.10;;;15.50;99.90;;;;;;5055419;28;20433;-88
2022/06/06 04:09:23;;;;;;;0.10;0.10;;;15.50;99.90;;;;;;5070378;28;20814;-90
2022/06/06 04:12:02;;;;;;;0.10;0.10;;;15.40;99.90;;;;;;5064806;28;20499;-87
2022/06/06 04:14:33;;;;;;;0.10;0.10;;;15.50;99.90;;;;;;5059112;28;21395;-85
2022/06/06 04:17:24;;;;;;;0.10;0.10;;;15.60;99.90;;;;;;5059387;28;20501;-86
2022/06/06 04:20:07;;;;;;;0.10;0.10;;;15.60;99.90;;;;;;5070107;28;20444;-87
2022/06/06 04:23:00;;;;;;;0.10;0.10;;;15.60;99.90;;;;;;5065173;28;20463;-86
2022/06/06 04:25:38;;;;;;;0.10;0.10;;;15.60;99.90;;;;;;5045093;28;20528;-88
2022/06/06 04:28:09;;;;;;;0.10;0.10;;;15.70;99.90;;;;;;5068483;28;20903;-89
2022/06/06 04:31:01;;;;;;;0.10;0.10;;;15.70;99.90;;;;;;5068810;28;20492;-88
2022/06/06 04:33:39;;;;;;;0.10;0.10;;;15.70;99.90;;;;;;5027229;28;20493;-87
2022/06/06 04:36:52;;;;;;;0.10;0.10;;;15.70;99.90;;;;;;5069562;28;20443;-87
2022/06/06 04:39:41;;;;;;;0.10;0.10;;;15.80;99.90;;;;;;5022122;28;20436;-91
2022/06/06 04:42:30;;;;;;;0.10;0.10;;;15.80;99.90;;;;;;5038610;28;20444;-87
2022/06/06 04:45:35;;;;;;;0.10;0.10;;;15.80;99.90;;;;;;5056219;28;20432;-88
2022/06/06 04:48:04;;;;;;;0.10;0.10;;;15.90;99.90;;;;;;5054287;28;20437;-84
2022/06/06 04:50:31;;;;;;;0.10;0.10;;;15.90;99.90;;;;;;5052578;28;20480;-89
2022/06/06 04:53:03;;;;;;;0.10;0.10;;;15.90;99.90;;;;;;5066606;28;20544;-85
2022/06/06 04:55:32;;;;;;;0.10;0.10;;;15.90;99.90;;;;;;5055398;28;20527;-95
2022/06/06 04:58:00;;;;;;;0.10;0.10;;;16.00;99.90;;;;;;5065627;28;20440;-92
2022/06/06 05:00:26;;;;;;;0.10;0.10;;;16.00;99.90;;;;;;5060691;28;20482;-90
2022/06/06 05:02:52;;;;;;;0.10;0.10;;;16.00;99.90;;;;;;5064404;28;20473;-90
2022/06/06 05:05:17;;;;;;;0.10;0.10;;;16.00;99.90;;;;;;5069750;28;20186;-93
2022/06/06 05:08:13;;;;;;;0.10;0.10;;;16.10;99.90;;;;;;5050657;28;21055;-89
2022/06/06 05:10:48;;;;;;;0.10;0.10;;;16.10;99.90;;;;;;5053097;28;20271;-86
2022/06/06 05:13:33;;;;;;;0.10;0.10;;;16.10;99.90;;;;;;5068806;28;20443;-87
2022/06/06 05:16:30;;;;;;;0.10;0.10;;;16.10;99.90;;;;;;5049553;28;20534;-91
2022/06/06 05:19:32;;;;;;;0.10;0.10;;;16.10;99.90;;;;;;5041390;28;20445;-88
2022/06/06 05:21:57;;;;;;;0.10;0.10;;;16.20;99.90;;;;;;5056081;28;20937;-88
2022/06/06 05:24:48;;;;;;;0.10;0.10;;;16.20;99.90;;;;;;5063611;28;20436;-87
2022/06/06 05:27:31;;;;;;;0.10;0.10;;;16.20;99.90;;;;;;5069354;28;20595;-92
2022/06/06 05:30:16;;;;;;;0.10;0.10;;;16.20;99.90;;;;;;5069213;28;20459;-94
2022/06/06 05:33:06;;;;;;;0.10;0.10;;;16.20;99.90;;;;;;5064507;28;20482;-88
2022/06/06 05:36:03;;;;;;;0.10;0.10;;;16.10;99.90;;;;;;5063105;28;20440;-89
2022/06/06 05:38:50;;;;;;;0.10;0.10;;;16.10;99.90;;;;;;5050494;28;20454;-88
2022/06/06 05:41:27;;;;;;;0.10;0.10;;;16.20;99.90;;;;;;5073778;28;20439;-88
2022/06/06 05:44:12;;;;;;;0.10;0.10;;;16.10;99.90;;;;;;5074880;28;20447;-87
2022/06/06 05:46:46;;;;;;;0.10;0.10;;;16.20;99.90;;;;;;5057114;28;20502;-93
2022/06/06 05:49:35;;;;;;;0.10;0.10;;;16.20;99.90;;;;;;5060412;28;20457;-93
2022/06/06 05:52:35;;;;;;;0.10;0.10;;;16.20;99.90;;;;;;5043884;28;20473;-96
2022/06/06 05:55:23;;;;;;;0.10;0.10;;;16.30;99.90;;;;;;5019468;28;20444;-95
2022/06/06 05:58:10;;;;;;;0.10;0.10;;;16.30;99.90;;;;;;5070288;28;20463;-95
2022/06/06 06:01:00;;;;;;;0.10;0.10;;;16.30;99.90;;;;;;5053583;28;20483;-93
2022/06/06 06:03:51;;;;;;;0.10;0.10;;;16.30;99.90;;;;;;5067616;28;20820;-93
2022/06/06 06:06:32;;;;;;;0.10;0.10;;;16.30;99.90;;;;;;5034346;28;20445;-95
2022/06/06 06:09:16;;;;;;;0.10;0.10;;;16.30;99.90;;;;;;5064475;28;20502;-89
2022/06/06 06:11:55;;;;;;;0.10;0.10;;;16.30;99.90;;;;;;5065018;28;20491;-93
2022/06/06 06:14:37;;;;;;;0.10;0.10;;;16.30;99.90;;;;;;5058443;28;20515;-96
2022/06/06 06:17:03;;;;;;;0.10;0.10;;;16.30;99.90;;;;;;5065799;28;20460;-94
2022/06/06 06:19:43;;;;;;;0.10;0.10;;;16.30;99.90;;;;;;5049931;28;20448;-95
2022/06/06 06:22:09;;;;;;;0.10;0.10;;;16.30;99.90;;;;;;5051398;28;20246;-92
2022/06/06 06:24:39;;;;;;;0.10;0.10;;;16.40;99.90;;;;;;5065909;28;22223;-90
2022/06/06 06:27:06;;;;;;;0.10;0.10;;;16.40;99.90;;;;;;5065539;28;20449;-93
2022/06/06 06:29:31;;;;;;;0.10;0.10;;;16.40;99.90;;;;;;5067098;28;20446;-90
2022/06/06 06:32:16;;;;;;;0.10;0.10;;;16.50;99.90;;;;;;5050746;28;20850;-86
2022/06/06 06:34:48;;;;;;;0.10;0.10;;;16.50;99.90;;;;;;5070081;28;20435;-90
2022/06/06 06:37:14;;;;;;;0.10;0.10;;;16.60;99.90;;;;;;5084975;28;20462;-85
2022/06/06 06:39:51;;;;;;;0.10;0.10;;;16.60;99.90;;;;;;5066854;28;20444;-95
2022/06/06 06:42:28;;;;;;;0.10;0.10;;;16.60;99.90;;;;;;5064152;28;20486;-92
2022/06/06 06:45:01;;;;;;;0.10;0.10;;;16.60;99.90;;;;;;5064782;28;20633;-89
2022/06/06 06:47:30;;;;;;;0.10;0.10;;;16.60;99.90;;;;;;5056054;28;20932;-93
2022/06/06 06:50:11;;;;;;;0.10;0.10;;;16.70;99.90;;;;;;5067531;28;20447;-90
2022/06/06 06:52:46;;;;;;;0.10;0.10;;;16.70;99.90;;;;;;5061455;28;20460;-96
2022/06/06 06:55:11;;;;;;;0.10;0.10;;;16.80;99.90;;;;;;5054035;28;20443;-96
2022/06/06 06:57:49;;;;;;;0.10;0.10;;;16.80;99.90;;;;;;5050009;28;20759;-95
2022/06/06 07:00:20;;;;;;;0.00;0.00;;;16.80;99.90;;;;;;5064235;28;20186;-93
2022/06/06 07:09:19;;;;;;;0.10;0.10;;;16.80;99.90;;;;;;5067278;28;20505;-91
2022/06/06 07:12:08;;;;;;;0.10;0.10;;;16.90;99.90;;;;;;5050577;28;20583;-93
2022/06/06 07:14:46;;;;;;;0.10;0.10;;;17.00;99.90;;;;;;5017817;28;20440;-92
2022/06/06 07:17:11;;;;;;;0.13;0.13;;;17.10;99.90;;;;;;5062043;28;20439;-96
2022/06/06 07:19:48;;;;;;;0.10;0.10;;;17.00;99.90;;;;;;5069933;28;20447;-94
2022/06/06 07:22:16;;;;;;;0.10;0.10;;;17.00;99.90;;;;;;5068441;28;20186;-88
2022/06/06 07:24:43;;;;;;;0.10;0.10;;;17.10;99.90;;;;;;5054431;28;20444;-91
2022/06/06 07:27:10;;;;;;;0.10;0.10;;;17.10;99.90;;;;;;5048989;28;21158;-91
2022/06/06 07:29:37;;;;;;;0.10;0.10;;;17.20;99.90;;;;;;5051725;28;20966;-93
2022/06/06 07:32:38;;;;;;;0.10;0.10;;;17.30;99.90;;;;;;5073343;28;21286;-89
2022/06/06 07:35:34;;;;;;;0.10;0.10;;;17.30;99.90;;;;;;5067347;28;21004;-93
2022/06/06 07:38:25;;;;;;;0.17;0.17;;;17.30;99.90;;;;;;5066817;28;20958;-89
2022/06/06 07:41:12;;;;;;;0.10;0.10;;;17.30;99.90;;;;;;5061398;28;20497;-96
2022/06/06 07:43:56;;;;;;;0.10;0.10;;;17.30;99.90;;;;;;5056007;28;20809;-93
2022/06/06 07:46:44;;;;;;;0.10;0.10;;;17.20;99.90;;;;;;5060655;28;20552;-91
2022/06/06 07:49:23;;;;;;;0.10;0.10;;;17.10;99.90;;;;;;5050196;28;20447;-87
2022/06/06 07:52:11;;;;;;;0.10;0.10;;;17.10;99.90;;;;;;5056677;28;20501;-96
2022/06/06 07:54:47;;;;;;;0.10;0.10;;;17.10;99.90;;;;;;5071042;28;20447;-95
2022/06/06 07:57:28;;;;;;;0.10;0.10;;;17.10;99.90;;;;;;5071574;28;20516;-91
2022/06/06 08:00:16;;;;;;;0.10;0.10;;;17.10;99.90;;;;;;5060550;28;20816;-93
2022/06/06 08:03:14;;;;;;;0.13;0.13;;;17.20;99.90;;;;;;5060827;28;20440;-94
2022/06/06 08:06:05;;;;;;;0.10;0.10;;;17.20;99.90;;;;;;5075335;28;20798;-93
2022/06/06 08:08:51;;;;;;;0.10;0.10;;;17.20;99.90;;;;;;5055222;28;21106;-96
2022/06/06 08:11:33;;;;;;;0.10;0.10;;;17.20;99.90;;;;;;5063973;28;20479;-89
2022/06/06 08:14:20;;;;;;;0.10;0.10;;;17.10;99.90;;;;;;5069521;28;20478;-96
2022/06/06 08:16:45;;;;;;;0.00;0.00;;;17.10;99.90;;;;;;5066729;28;20452;-93
2022/06/06 08:19:20;;;;;;;0.10;0.10;;;17.00;99.90;;;;;;5073283;28;20432;-88
2022/06/06 08:21:49;;;;;;;0.10;0.10;;;17.00;99.90;;;;;;5054799;28;20188;-93
2022/06/06 08:24:35;;;;;;;0.10;0.10;;;16.90;99.90;;;;;;5052606;28;20825;-93
2022/06/06 08:27:03;;;;;;;0.10;0.10;;;16.90;99.90;;;;;;5050987;28;20448;-94
2022/06/06 08:29:36;;;;;;;0.10;0.10;;;16.90;99.90;;;;;;5055744;28;20441;-93
2022/06/06 08:32:03;;;;;;;0.10;0.10;;;16.90;99.90;;;;;;5054016;28;20519;-93
2022/06/06 08:34:28;;;;;;;0.10;0.10;;;17.00;99.90;;;;;;5069141;28;20451;-95
2022/06/06 08:37:25;;;;;;;0.10;0.10;;;17.00;99.90;;;;;;5070006;28;20459;-96
2022/06/06 08:40:09;;;;;;;0.00;0.00;;;17.10;99.90;;;;;;5053883;28;20235;-91
2022/06/06 08:42:52;;;;;;;0.10;0.10;;;17.10;99.90;;;;;;5071530;28;20785;-92
2022/06/06 08:45:48;;;;;;;0.10;0.10;;;17.20;99.90;;;;;;5065585;28;20436;-86
2022/06/06 08:48:53;;;;;;;0.10;0.10;;;17.10;99.90;;;;;;5066276;28;20428;-90
2022/06/06 08:51:50;;;;;;;0.10;0.10;;;17.30;99.90;;;;;;5071355;28;20487;-87
2022/06/06 08:54:53;;;;;;;0.10;0.10;;;17.30;99.90;;;;;;5059374;28;20947;-94
2022/06/06 08:57:37;;;;;;;0.20;0.20;;;17.30;99.90;;;;;;5056752;28;20448;-92
2022/06/06 09:00:07;;;;;;;0.10;0.10;;;17.30;99.90;;;;;;5063228;28;20448;-91
2022/06/06 09:03:21;;;;;;;0.10;0.10;;;17.30;99.90;;;;;;5047376;28;20846;-88
2022/06/06 09:05:52;;;;;;;0.10;0.10;;;17.20;99.90;;;;;;5069212;28;20493;-93
2022/06/06 09:08:53;;;;;;;0.10;0.10;;;17.30;99.90;;;;;;5074490;28;20515;-92
2022/06/06 09:11:57;;;;;;;0.10;0.10;;;17.40;99.90;;;;;;5072627;28;20486;-93
2022/06/06 09:14:43;;;;;;;0.10;0.10;;;17.50;99.90;;;;;;5003981;28;20449;-92
2022/06/06 09:17:43;;;;;;;0.10;0.10;;;17.40;99.90;;;;;;5048478;28;20547;-95
2022/06/06 09:20:50;;;;;;;0.10;0.10;;;17.10;99.90;;;;;;5069869;28;20543;-92
2022/06/06 09:23:40;;;;;;;0.10;0.10;;;17.00;99.90;;;;;;5035159;28;20467;-96
2022/06/06 09:26:21;;;;;;;0.10;0.10;;;16.90;99.90;;;;;;5051599;28;20428;-94
2022/06/06 09:29:18;;;;;;;0.10;0.10;;;16.80;99.90;;;;;;5054370;28;20451;-91
2022/06/06 09:32:10;;;;;;;0.10;0.10;;;17.00;99.90;;;;;;5073094;28;20507;-96
2022/06/06 09:35:11;;;;;;;0.10;0.10;;;17.20;99.90;;;;;;5066474;28;20452;-86
2022/06/06 09:37:52;;;;;;;0.10;0.10;;;17.10;99.90;;;;;;5040354;28;20432;-90
2022/06/06 09:40:43;;;;;;;0.10;0.10;;;17.00;99.90;;;;;;5066925;28;20528;-85
2022/06/06 09:43:20;;;;;;;0.20;0.20;;;17.00;99.90;;;;;;5013413;28;20426;-90
2022/06/06 09:46:21;;;;;;;0.10;0.10;;;16.90;99.90;;;;;;5065914;28;20818;-88
2022/06/06 09:49:02;;;;;;;0.10;0.10;;;17.00;99.90;;;;;;5064499;28;20474;-89
2022/06/06 09:51:49;;;;;;;0.10;0.10;;;17.10;99.90;;;;;;5059004;28;21067;-91
2022/06/06 10:00:55;;;;;;;0.20;0.20;;;17.00;99.90;;;;;;5070745;28;20493;-88
2022/06/06 10:03:26;;;;;;;0.10;0.10;;;16.80;99.90;;;;;;5078057;28;20538;-87
2022/06/06 10:06:10;;;;;;;0.10;0.10;;;16.90;99.90;;;;;;5052698;28;20443;-91
2022/06/06 10:08:58;;;;;;;0.10;0.10;;;17.00;99.90;;;;;;5072824;22;20496;-90
2022/06/06 10:11:55;;;;;;;0.10;0.10;;;17.10;99.90;;;;;;5057552;28;20480;-94
2022/06/06 10:14:37;;;;;;;0.10;0.10;;;17.30;99.90;;;;;;5052526;28;20436;-89
2022/06/06 10:17:28;;;;;;;0.10;0.10;;;17.10;99.90;;;;;;5050296;28;20799;-89
2022/06/06 10:20:12;;;;;;;0.10;0.00;;;17.00;99.90;;;;;;5071552;28;20446;-92
2022/06/06 10:23:13;;;;;;;0.10;0.10;;;17.00;99.90;;;;;;5052338;28;20476;-87
2022/06/06 10:25:50;;;;;;;0.00;0.00;;;17.00;99.90;;;;;;5003472;28;20444;-90
2022/06/06 10:28:16;;;;;;;0.10;0.10;;;17.70;99.90;;;;;;5050156;28;20452;-89
2022/06/06 10:31:09;;;;;;;0.10;0.10;;;19.00;99.90;;;;;;5054340;28;20498;-95
2022/06/06 10:34:12;;;;;;;0.10;0.10;;;19.00;99.90;;;;;;5057158;28;20646;-96
2022/06/06 10:37:28;;;;;;;0.10;0.10;;;18.50;99.90;;;;;;5054555;28;20916;-94
2022/06/06 10:40:30;;;;;;;0.10;0.10;;;18.30;99.90;;;;;;5054685;28;20481;-96
2022/06/06 10:43:21;;;;;;;0.10;0.10;;;17.90;99.90;;;;;;5039882;28;20944;-89
2022/06/06 10:46:02;;;;;;;0.10;0.10;;;17.70;99.90;;;;;;5048682;28;20451;-88
2022/06/06 10:49:00;;;;;;;0.10;0.10;;;18.30;99.90;;;;;;5050860;28;20475;-90
2022/06/06 10:51:39;;;;;;;0.10;0.10;;;19.20;99.90;;;;;;5052268;28;20485;-87
2022/06/06 10:54:26;;;;;;;0.00;0.00;;;19.40;99.90;;;;;;5046826;28;20437;-87
2022/06/06 10:57:13;;;;;;;0.10;0.00;;;19.50;99.90;;;;;;5049122;28;20444;-90
2022/06/06 11:00:10;;;;;;;0.10;0.10;;;19.50;99.90;;;;;;5056531;28;20446;-86
2022/06/06 11:03:01;;;;;;;0.10;0.00;;;19.40;99.90;;;;;;5049134;28;20459;-87
2022/06/06 11:06:04;;;;;;;0.10;0.00;;;20.80;99.90;;;;;;5045636;28;20435;-91
2022/06/06 11:08:33;;;;;;;0.10;0.10;;;21.20;99.90;;;;;;5062329;28;20480;-86
2022/06/06 11:11:32;;;;;;;0.10;0.00;;;20.60;99.90;;;;;;5057083;28;20479;-88
2022/06/06 11:14:12;;;;;;;0.10;0.00;;;21.10;99.90;;;;;;5057129;28;20428;-87
2022/06/06 11:17:08;;;;;;;0.10;0.00;;;22.10;99.90;;;;;;5052822;28;20424;-90
2022/06/06 11:20:02;;;;;;;0.10;0.00;;;22.50;99.90;;;;;;5077712;28;20850;-91
2022/06/06 11:22:27;;;;;;;0.10;0.00;;;22.70;99.90;;;;;;5045730;28;20444;-90
2022/06/06 11:25:10;;;;;;;0.10;0.00;;;22.20;99.90;;;;;;5054262;28;20440;-91
2022/06/06 11:27:36;;;;;;;0.10;0.00;;;22.30;99.90;;;;;;5054026;28;20183;-87
2022/06/06 11:30:27;;;;;;;0.10;0.00;;;22.70;99.90;;;;;;5048344;28;20436;-90
2022/06/06 11:33:21;;;;;;;0.07;0.00;;;23.50;99.90;;;;;;5061774;28;20196;-95
2022/06/06 11:36:15;;;;;;;0.10;0.00;;;23.80;99.90;;;;;;5051788;28;20514;-93
2022/06/06 11:39:17;;;;;;;0.10;0.00;;;24.30;99.90;;;;;;5055259;28;20444;-95
2022/06/06 11:42:11;;;;;;;0.10;0.00;;;23.70;99.90;;;;;;5056997;28;21017;-95
2022/06/06 11:44:56;;;;;;;0.10;0.00;;;23.90;99.90;;;;;;5067567;28;20516;-92
2022/06/06 11:47:45;;;;;;;0.10;0.00;;;24.50;99.90;;;;;;5060429;28;20493;-94
2022/06/06 11:50:11;;;;;;;0.10;0.00;;;25.00;99.90;;;;;;5055614;28;20954;-90
2022/06/06 11:52:56;;;;;;;0.10;0.00;;;25.10;99.90;;;;;;5048021;28;20461;-88
2022/06/06 11:55:27;;;;;;;0.10;0.00;;;24.70;99.90;;;;;;5066819;28;20182;-96
2022/06/06 11:58:24;;;;;;;0.10;0.00;;;23.70;99.90;;;;;;5056689;28;20449;-93
2022/06/06 12:01:01;;;;;;;0.10;0.00;;;24.10;99.90;;;;;;5054667;28;20787;-93
2022/06/06 12:03:48;;;;;;;0.10;0.00;;;23.80;99.90;;;;;;5063523;28;20503;-88
2022/06/06 12:07:10;;;;;;;0.10;0.00;;;23.40;99.90;;;;;;5061413;28;20857;-89
2022/06/06 12:09:55;;;;;;;0.10;0.00;;;23.70;99.90;;;;;;4984950;28;21110;-89
2022/06/06 12:12:51;;;;;;;0.10;0.00;;;23.30;99.90;;;;;;4966774;28;20495;-92
2022/06/06 12:15:26;;;;;;;0.10;0.00;;;23.40;99.90;;;;;;5037475;28;20843;-94
2022/06/06 12:18:29;;;;;;;0.10;0.00;;;23.70;99.90;;;;;;5057671;28;20522;-92
2022/06/06 12:21:19;;;;;;;0.10;0.00;;;24.50;99.90;;;;;;5043315;28;20442;-92
2022/06/06 12:24:04;;;;;;;0.10;0.00;;;24.60;99.90;;;;;;5050215;28;20440;-92
2022/06/06 12:26:58;;;;;;;0.10;0.00;;;24.60;99.90;;;;;;5055918;28;20455;-88
2022/06/06 12:29:58;;;;;;;0.07;0.00;;;25.10;99.90;;;;;;5055233;28;20498;-93
2022/06/06 12:33:05;;;;;;;0.10;0.00;;;25.20;99.90;;;;;;5052408;28;20511;-92
2022/06/06 12:36:14;;;;;;;0.10;0.00;;;24.00;99.90;;;;;;5038409;28;20448;-92
2022/06/06 12:38:55;;;;;;;0.10;0.00;;;22.90;99.90;;;;;;5047576;28;20453;-94
2022/06/06 12:41:43;;;;;;;0.10;0.00;;;22.40;99.90;;;;;;5048178;28;20444;-93
2022/06/06 12:44:39;;;;;;;0.10;0.00;;;22.80;99.90;;;;;;5051911;28;21106;-82
2022/06/06 12:47:44;;;;;;;0.10;0.00;;;22.90;99.90;;;;;;5075979;28;20440;-86
2022/06/06 12:50:46;;;;;;;0.10;0.00;;;22.90;99.90;;;;;;5052608;28;20854;-93
2022/06/06 12:53:49;;;;;;;0.10;0.00;;;24.30;99.90;;;;;;5052999;28;20798;-96
2022/06/06 12:56:42;;;;;;;0.10;0.00;;;24.40;99.90;;;;;;5066803;28;20432;-91
2022/06/06 12:59:47;;;;;;;0.10;0.00;;;23.20;99.90;;;;;;5037463;28;20534;-88
2022/06/06 13:02:36;;;;;;;0.10;0.10;;;22.30;99.90;;;;;;5051973;28;20445;-91
2022/06/06 13:05:31;;;;;;;0.10;0.00;;;22.40;99.90;;;;;;5047717;28;21159;-92
2022/06/06 13:08:03;;;;;;;0.10;0.00;;;22.10;99.90;;;;;;5063772;28;20441;-96
2022/06/06 13:10:40;;;;;;;0.10;0.00;;;22.60;99.90;;;;;;5058353;28;20480;-93
2022/06/06 13:13:18;;;;;;;0.10;0.00;;;23.00;99.90;;;;;;5054484;28;20453;-92
2022/06/06 13:16:13;;;;;;;0.10;0.00;;;22.80;99.90;;;;;;5044265;28;20433;-83
2022/06/06 13:18:52;;;;;;;0.10;0.00;;;22.10;99.90;;;;;;5050908;28;20944;-88
2022/06/06 13:21:34;;;;;;;0.10;0.00;;;22.40;99.90;;;;;;5068656;28;20421;-94
2022/06/06 13:24:27;;;;;;;0.10;0.00;;;22.60;99.90;;;;;;5069601;28;20455;-92
2022/06/06 13:26:55;;;;;;;0.10;0.00;;;22.70;99.90;;;;;;5051549;28;20579;-96
2022/06/06 13:29:31;;;;;;;0.10;0.00;;;23.00;99.90;;;;;;5050507;28;20598;-93
2022/06/06 13:32:17;;;;;;;0.10;0.00;;;22.90;99.90;;;;;;5064396;28;20479;-93
2022/06/06 13:34:48;;;;;;;0.10;0.00;;;22.90;99.90;;;;;;5051313;28;20432;-88
2022/06/06 13:37:51;;;;;;;0.10;0.00;;;22.60;99.90;;;;;;5054218;28;20507;-92
2022/06/06 13:40:20;;;;;;;0.10;0.00;;;21.80;99.90;;;;;;5031969;28;20469;-93
2022/06/06 13:42:59;;;;;;;0.10;0.00;;;21.90;99.90;;;;;;5037000;28;20496;-90
2022/06/06 13:45:47;;;;;;;0.00;0.00;;;21.80;99.90;;;;;;5065905;28;20884;-84
2022/06/06 13:48:36;;;;;;;0.10;0.00;;;22.10;99.90;;;;;;5051750;28;20422;-92
2022/06/06 13:51:19;;;;;;;0.10;0.00;;;22.50;99.90;;;;;;5047020;28;20499;-93
2022/06/06 13:54:04;;;;;;;0.10;0.00;;;22.30;99.90;;;;;;5050298;28;20502;-88
2022/06/06 13:56:39;;;;;;;0.10;0.00;;;22.30;99.90;;;;;;5052024;28;20867;-96
2022/06/06 13:59:42;;;;;;;0.10;0.00;;;22.60;99.90;;;;;;5050918;28;20857;-92
2022/06/06 14:02:22;;;;;;;0.10;0.00;;;22.50;99.90;;;;;;5057988;28;20436;-86
2022/06/06 14:05:13;;;;;;;0.10;0.00;;;22.40;99.90;;;;;;5051285;28;20479;-91
2022/06/06 14:08:01;;;;;;;0.10;0.00;;;22.20;99.90;;;;;;5046518;28;20460;-94
2022/06/06 14:10:51;;;;;;;0.10;0.00;;;21.80;99.90;;;;;;5051990;28;20460;-91
2022/06/06 14:13:24;;;;;;;0.10;0.00;;;21.70;99.90;;;;;;5050230;28;20983;-89
2022/06/06 14:15:52;;;;;;;0.10;0.00;;;21.70;99.90;;;;;;5052277;28;20465;-89
2022/06/06 14:18:31;;;;;;;0.10;0.00;;;22.20;99.90;;;;;;5050295;28;20445;-91
2022/06/06 14:20:57;;;;;;;0.10;0.00;;;22.60;99.90;;;;;;5048844;28;20437;-91